sensor_id;sensor_type;location;lat;lon;timestamp;pressure;altitude;pressure_sealevel;temperature;humidity
35507;BME280;36461;52.018;21.036;2023-02-12T00:01:24;101493.41;;;3.04;78.65
35507;BME280;36461;52.018;21.036;2023-02-12T00:03:53;101500.02;;;2.99;78.39
35507;BME280;36461;52.018;21.036;2023-02-12T00:06:21;101504.88;;;2.93;78.20
35507;BME280;36461;52.018;21.036;2023-02-12T00:08:51;101513.20;;;2.91;78.20
35507;BME280;36461;52.018;21.036;2023-02-12T00:11:24;101515.70;;;2.87;78.23
35507;BME280;36461;52.018;21.036;2023-02-12T00:13:53;101515.27;;;2.81;77.97
35507;BME280;36461;52.018;21.036;2023-02-12T00:16:24;101520.42;;;2.74;77.84
35507;BME280;36461;52.018;21.036;2023-02-12T00:18:54;101534.25;;;2.63;77.32
35507;BME280;36461;52.018;21.036;2023-02-12T00:21:23;101535.32;;;2.56;77.66
35507;BME280;36461;52.018;21.036;2023-02-12T00:23:51;101546.88;;;2.54;77.63
35507;BME280;36461;52.018;21.036;2023-02-12T00:26:21;101552.32;;;2.52;77.66
35507;BME280;36461;52.018;21.036;2023-02-12T00:28:50;101552.70;;;2.46;77.41
35507;BME280;36461;52.018;21.036;2023-02-12T00:31:21;101568.85;;;2.42;77.66
35507;BME280;36461;52.018;21.036;2023-02-12T00:33:49;101575.95;;;2.38;77.54
35507;BME280;36461;52.018;21.036;2023-02-12T00:36:20;101589.64;;;2.31;76.65
35507;BME280;36461;52.018;21.036;2023-02-12T00:38:51;101590.38;;;2.25;77.07
35507;BME280;36461;52.018;21.036;2023-02-12T00:41:20;101589.71;;;2.18;77.14
35507;BME280;36461;52.018;21.036;2023-02-12T00:43:49;101596.91;;;2.11;77.11
35507;BME280;36461;52.018;21.036;2023-02-12T00:46:17;101592.24;;;2.08;77.17
35507;BME280;36461;52.018;21.036;2023-02-12T00:48:46;101594.63;;;2.08;77.07
35507;BME280;36461;52.018;21.036;2023-02-12T00:51:14;101599.04;;;2.08;77.38
35507;BME280;36461;52.018;21.036;2023-02-12T00:53:42;101602.45;;;2.07;77.50
35507;BME280;36461;52.018;21.036;2023-02-12T00:56:10;101601.65;;;2.02;76.92
35507;BME280;36461;52.018;21.036;2023-02-12T00:58:38;101603.10;;;1.98;77.12
35507;BME280;36461;52.018;21.036;2023-02-12T01:01:06;101602.28;;;1.92;76.87
35507;BME280;36461;52.018;21.036;2023-02-12T01:03:36;101604.23;;;1.87;77.11
35507;BME280;36461;52.018;21.036;2023-02-12T01:06:05;101616.22;;;1.82;76.90
35507;BME280;36461;52.018;21.036;2023-02-12T01:08:34;101618.65;;;1.77;76.63
35507;BME280;36461;52.018;21.036;2023-02-12T01:11:03;101629.36;;;1.75;76.66
35507;BME280;36461;52.018;21.036;2023-02-12T01:13:32;101642.47;;;1.74;76.62
35507;BME280;36461;52.018;21.036;2023-02-12T01:16:08;101643.41;;;1.77;76.74
35507;BME280;36461;52.018;21.036;2023-02-12T01:18:38;101638.65;;;1.78;76.87
35507;BME280;36461;52.018;21.036;2023-02-12T01:21:21;101643.45;;;1.78;76.74
35507;BME280;36461;52.018;21.036;2023-02-12T01:23:50;101650.29;;;1.79;76.80
35507;BME280;36461;52.018;21.036;2023-02-12T01:26:19;101652.90;;;1.81;76.98
35507;BME280;36461;52.018;21.036;2023-02-12T01:28:52;101649.73;;;1.77;76.92
35507;BME280;36461;52.018;21.036;2023-02-12T01:31:23;101656.98;;;1.73;76.83
35507;BME280;36461;52.018;21.036;2023-02-12T01:33:54;101656.41;;;1.71;76.78
35507;BME280;36461;52.018;21.036;2023-02-12T01:36:23;101659.69;;;1.66;76.92
35507;BME280;36461;52.018;21.036;2023-02-12T01:38:51;101661.45;;;1.61;76.35
35507;BME280;36461;52.018;21.036;2023-02-12T01:41:22;101659.15;;;1.58;76.37
35507;BME280;36461;52.018;21.036;2023-02-12T01:46:33;101676.20;;;1.57;76.34
35507;BME280;36461;52.018;21.036;2023-02-12T01:49:04;101679.20;;;1.61;76.37
35507;BME280;36461;52.018;21.036;2023-02-12T01:51:34;101685.15;;;1.61;76.08
35507;BME280;36461;52.018;21.036;2023-02-12T01:54:05;101686.28;;;1.58;75.61
35507;BME280;36461;52.018;21.036;2023-02-12T01:56:35;101686.08;;;1.56;75.87
35507;BME280;36461;52.018;21.036;2023-02-12T01:59:03;101689.98;;;1.56;75.63
35507;BME280;36461;52.018;21.036;2023-02-12T02:01:32;101680.02;;;1.53;75.44
35507;BME280;36461;52.018;21.036;2023-02-12T02:04:10;101684.92;;;1.51;75.57
35507;BME280;36461;52.018;21.036;2023-02-12T02:06:49;101694.43;;;1.50;75.71
35507;BME280;36461;52.018;21.036;2023-02-12T02:09:19;101695.52;;;1.45;75.66
35507;BME280;36461;52.018;21.036;2023-02-12T02:11:47;101700.50;;;1.41;75.62
35507;BME280;36461;52.018;21.036;2023-02-12T02:14:34;101710.55;;;1.40;75.82
35507;BME280;36461;52.018;21.036;2023-02-12T02:26:01;101736.24;;;1.38;75.44
35507;BME280;36461;52.018;21.036;2023-02-12T02:31:42;101731.80;;;1.43;75.95
35507;BME280;36461;52.018;21.036;2023-02-12T02:34:54;101736.21;;;1.49;75.69
35507;BME280;36461;52.018;21.036;2023-02-12T02:37:34;101751.88;;;1.54;75.84
35507;BME280;36461;52.018;21.036;2023-02-12T02:40:31;101761.69;;;1.58;75.70
35507;BME280;36461;52.018;21.036;2023-02-12T02:43:04;101761.50;;;1.57;75.31
35507;BME280;36461;52.018;21.036;2023-02-12T02:45:42;101770.41;;;1.52;74.94
35507;BME280;36461;52.018;21.036;2023-02-12T02:48:26;101773.39;;;1.48;74.97
35507;BME280;36461;52.018;21.036;2023-02-12T02:51:00;101786.52;;;1.48;74.86
35507;BME280;36461;52.018;21.036;2023-02-12T02:53:42;101784.58;;;1.46;75.07
35507;BME280;36461;52.018;21.036;2023-02-12T02:56:15;101781.67;;;1.39;74.64
35507;BME280;36461;52.018;21.036;2023-02-12T02:58:49;101794.84;;;1.34;74.48
35507;BME280;36461;52.018;21.036;2023-02-12T03:01:30;101800.73;;;1.32;74.48
35507;BME280;36461;52.018;21.036;2023-02-12T03:04:05;101804.18;;;1.27;74.00
35507;BME280;36461;52.018;21.036;2023-02-12T03:06:39;101816.55;;;1.24;74.42
35507;BME280;36461;52.018;21.036;2023-02-12T03:09:21;101818.94;;;1.25;74.44
35507;BME280;36461;52.018;21.036;2023-02-12T03:11:52;101815.24;;;1.26;74.56
35507;BME280;36461;52.018;21.036;2023-02-12T03:14:33;101828.36;;;1.26;74.70
35507;BME280;36461;52.018;21.036;2023-02-12T03:17:20;101846.21;;;1.25;74.41
35507;BME280;36461;52.018;21.036;2023-02-12T03:19:55;101855.09;;;1.24;74.68
35507;BME280;36461;52.018;21.036;2023-02-12T03:22:32;101866.36;;;1.25;74.58
35507;BME280;36461;52.018;21.036;2023-02-12T03:25:25;101873.96;;;1.23;74.50
35507;BME280;36461;52.018;21.036;2023-02-12T03:28:06;101882.64;;;1.22;74.56
35507;BME280;36461;52.018;21.036;2023-02-12T03:38:56;101896.86;;;1.30;73.71
35507;BME280;36461;52.018;21.036;2023-02-12T03:41:29;101900.96;;;1.30;74.07
35507;BME280;36461;52.018;21.036;2023-02-12T03:44:06;101897.66;;;1.27;73.46
35507;BME280;36461;52.018;21.036;2023-02-12T03:46:57;101901.65;;;1.25;73.66
35507;BME280;36461;52.018;21.036;2023-02-12T03:49:41;101915.41;;;1.23;73.25
35507;BME280;36461;52.018;21.036;2023-02-12T03:52:13;101917.03;;;1.20;73.62
35507;BME280;36461;52.018;21.036;2023-02-12T03:54:41;101921.70;;;1.16;73.66
35507;BME280;36461;52.018;21.036;2023-02-12T03:57:12;101923.48;;;1.13;73.47
35507;BME280;36461;52.018;21.036;2023-02-12T03:59:43;101922.40;;;1.11;73.25
35507;BME280;36461;52.018;21.036;2023-02-12T04:02:11;101921.10;;;1.08;73.33
35507;BME280;36461;52.018;21.036;2023-02-12T04:04:41;101926.03;;;1.08;73.44
35507;BME280;36461;52.018;21.036;2023-02-12T04:07:11;101925.23;;;1.04;73.46
35507;BME280;36461;52.018;21.036;2023-02-12T04:09:39;101934.19;;;1.01;73.53
35507;BME280;36461;52.018;21.036;2023-02-12T04:12:32;101938.77;;;1.01;73.08
35507;BME280;36461;52.018;21.036;2023-02-12T04:15:26;101944.89;;;1.00;73.24
35507;BME280;36461;52.018;21.036;2023-02-12T04:18:18;101941.99;;;1.00;73.57
35507;BME280;36461;52.018;21.036;2023-02-12T04:24:24;101942.91;;;0.97;73.08
35507;BME280;36461;52.018;21.036;2023-02-12T04:27:09;101946.84;;;0.98;73.00
35507;BME280;36461;52.018;21.036;2023-02-12T04:32:46;101958.30;;;0.99;73.23
35507;BME280;36461;52.018;21.036;2023-02-12T04:35:30;101968.20;;;0.99;73.09
35507;BME280;36461;52.018;21.036;2023-02-12T04:40:29;101970.29;;;1.00;73.39
35507;BME280;36461;52.018;21.036;2023-02-12T04:42:58;101966.02;;;1.00;73.27
35507;BME280;36461;52.018;21.036;2023-02-12T04:45:31;101962.54;;;1.03;73.08
35507;BME280;36461;52.018;21.036;2023-02-12T04:48:00;101965.36;;;1.06;72.96
35507;BME280;36461;52.018;21.036;2023-02-12T04:50:38;101968.97;;;1.12;73.32
35507;BME280;36461;52.018;21.036;2023-02-12T04:53:07;101973.45;;;1.19;73.34
35507;BME280;36461;52.018;21.036;2023-02-12T04:55:35;101972.38;;;1.23;73.17
35507;BME280;36461;52.018;21.036;2023-02-12T04:58:04;101972.77;;;1.25;73.11
35507;BME280;36461;52.018;21.036;2023-02-12T05:00:32;101977.32;;;1.29;73.25
35507;BME280;36461;52.018;21.036;2023-02-12T05:03:00;101981.13;;;1.30;72.95
35507;BME280;36461;52.018;21.036;2023-02-12T05:05:29;101986.77;;;1.30;72.49
35507;BME280;36461;52.018;21.036;2023-02-12T05:07:56;101990.46;;;1.28;72.59
35507;BME280;36461;52.018;21.036;2023-02-12T05:10:25;101992.58;;;1.25;72.24
35507;BME280;36461;52.018;21.036;2023-02-12T05:12:54;101998.55;;;1.20;72.71
35507;BME280;36461;52.018;21.036;2023-02-12T05:15:22;102002.00;;;1.16;72.41
35507;BME280;36461;52.018;21.036;2023-02-12T05:17:50;102012.42;;;1.11;72.14
35507;BME280;36461;52.018;21.036;2023-02-12T05:20:18;102023.02;;;1.07;71.97
35507;BME280;36461;52.018;21.036;2023-02-12T05:22:50;102031.09;;;1.04;71.72
35507;BME280;36461;52.018;21.036;2023-02-12T05:25:18;102038.80;;;1.00;71.92
35507;BME280;36461;52.018;21.036;2023-02-12T05:27:47;102039.42;;;0.98;72.49
35507;BME280;36461;52.018;21.036;2023-02-12T05:30:15;102042.86;;;0.98;72.16
35507;BME280;36461;52.018;21.036;2023-02-12T05:32:43;102054.07;;;0.97;72.42
35507;BME280;36461;52.018;21.036;2023-02-12T05:35:11;102062.23;;;0.97;72.49
35507;BME280;36461;52.018;21.036;2023-02-12T05:37:39;102068.50;;;0.96;72.13
35507;BME280;36461;52.018;21.036;2023-02-12T05:40:08;102071.10;;;0.97;72.39
35507;BME280;36461;52.018;21.036;2023-02-12T05:42:36;102074.60;;;0.95;72.29
35507;BME280;36461;52.018;21.036;2023-02-12T05:45:04;102078.14;;;0.93;72.42
35507;BME280;36461;52.018;21.036;2023-02-12T05:47:33;102086.81;;;0.93;72.43
35507;BME280;36461;52.018;21.036;2023-02-12T05:50:00;102085.25;;;0.92;72.49
35507;BME280;36461;52.018;21.036;2023-02-12T05:52:28;102088.86;;;0.93;72.75
35507;BME280;36461;52.018;21.036;2023-02-12T05:54:56;102091.87;;;0.91;72.81
35507;BME280;36461;52.018;21.036;2023-02-12T05:57:25;102095.20;;;0.89;72.62
35507;BME280;36461;52.018;21.036;2023-02-12T05:59:53;102099.91;;;0.87;73.04
35507;BME280;36461;52.018;21.036;2023-02-12T06:02:21;102101.77;;;0.87;72.56
35507;BME280;36461;52.018;21.036;2023-02-12T06:04:49;102104.84;;;0.87;72.57
35507;BME280;36461;52.018;21.036;2023-02-12T06:07:17;102108.76;;;0.87;72.56
35507;BME280;36461;52.018;21.036;2023-02-12T06:09:44;102113.89;;;0.87;72.56
35507;BME280;36461;52.018;21.036;2023-02-12T06:12:12;102120.89;;;0.82;72.38
35507;BME280;36461;52.018;21.036;2023-02-12T06:14:41;102129.48;;;0.80;72.51
35507;BME280;36461;52.018;21.036;2023-02-12T06:17:08;102141.21;;;0.84;72.43
35507;BME280;36461;52.018;21.036;2023-02-12T06:19:36;102139.84;;;0.88;72.25
35507;BME280;36461;52.018;21.036;2023-02-12T06:22:05;102138.54;;;0.90;71.79
35507;BME280;36461;52.018;21.036;2023-02-12T06:24:33;102134.30;;;0.91;71.74
35507;BME280;36461;52.018;21.036;2023-02-12T06:27:01;102141.31;;;0.91;71.84
35507;BME280;36461;52.018;21.036;2023-02-12T06:29:29;102149.15;;;0.92;71.76
35507;BME280;36461;52.018;21.036;2023-02-12T06:31:57;102160.77;;;0.92;71.65
35507;BME280;36461;52.018;21.036;2023-02-12T06:34:25;102166.13;;;0.90;71.26
35507;BME280;36461;52.018;21.036;2023-02-12T06:36:53;102168.50;;;0.89;71.33
35507;BME280;36461;52.018;21.036;2023-02-12T06:39:21;102165.52;;;0.87;71.24
35507;BME280;36461;52.018;21.036;2023-02-12T06:41:49;102168.32;;;0.89;71.48
35507;BME280;36461;52.018;21.036;2023-02-12T06:44:17;102168.67;;;0.94;71.67
35507;BME280;36461;52.018;21.036;2023-02-12T06:46:45;102167.16;;;0.99;71.59
35507;BME280;36461;52.018;21.036;2023-02-12T06:49:13;102168.27;;;1.02;71.32
35507;BME280;36461;52.018;21.036;2023-02-12T06:51:41;102172.15;;;1.05;71.19
35507;BME280;36461;52.018;21.036;2023-02-12T06:54:17;102171.34;;;1.06;70.95
35507;BME280;36461;52.018;21.036;2023-02-12T06:56:45;102179.76;;;1.04;70.87
35507;BME280;36461;52.018;21.036;2023-02-12T06:59:15;102180.80;;;1.04;70.74
35507;BME280;36461;52.018;21.036;2023-02-12T07:01:43;102178.56;;;1.04;70.69
35507;BME280;36461;52.018;21.036;2023-02-12T07:04:12;102176.94;;;1.01;70.42
35507;BME280;36461;52.018;21.036;2023-02-12T07:06:40;102178.52;;;0.98;70.00
35507;BME280;36461;52.018;21.036;2023-02-12T07:09:08;102183.10;;;0.97;70.61
35507;BME280;36461;52.018;21.036;2023-02-12T07:11:37;102187.52;;;0.96;70.69
35507;BME280;36461;52.018;21.036;2023-02-12T07:14:05;102189.19;;;0.96;70.31
35507;BME280;36461;52.018;21.036;2023-02-12T07:16:34;102182.92;;;0.92;70.21
35507;BME280;36461;52.018;21.036;2023-02-12T07:19:02;102184.27;;;0.87;70.57
35507;BME280;36461;52.018;21.036;2023-02-12T07:21:30;102184.77;;;0.81;70.69
35507;BME280;36461;52.018;21.036;2023-02-12T07:23:58;102192.02;;;0.79;70.76
35507;BME280;36461;52.018;21.036;2023-02-12T07:26:26;102192.92;;;0.77;70.81
35507;BME280;36461;52.018;21.036;2023-02-12T07:28:56;102197.05;;;0.73;70.86
35507;BME280;36461;52.018;21.036;2023-02-12T07:31:25;102199.57;;;0.67;70.67
35507;BME280;36461;52.018;21.036;2023-02-12T07:33:55;102196.77;;;0.61;70.61
35507;BME280;36461;52.018;21.036;2023-02-12T07:36:25;102201.32;;;0.55;70.68
35507;BME280;36461;52.018;21.036;2023-02-12T07:38:54;102203.34;;;0.50;71.00
35507;BME280;36461;52.018;21.036;2023-02-12T07:41:27;102206.39;;;0.45;71.12
35507;BME280;36461;52.018;21.036;2023-02-12T07:43:57;102205.67;;;0.44;71.46
35507;BME280;36461;52.018;21.036;2023-02-12T07:46:28;102207.10;;;0.46;71.35
35507;BME280;36461;52.018;21.036;2023-02-12T07:48:58;102208.92;;;0.49;71.29
35507;BME280;36461;52.018;21.036;2023-02-12T07:51:26;102207.58;;;0.49;71.29
35507;BME280;36461;52.018;21.036;2023-02-12T07:53:55;102205.46;;;0.47;70.96
35507;BME280;36461;52.018;21.036;2023-02-12T07:56:25;102209.48;;;0.45;71.11
35507;BME280;36461;52.018;21.036;2023-02-12T07:58:59;102208.13;;;0.42;71.37
35507;BME280;36461;52.018;21.036;2023-02-12T08:01:30;102208.17;;;0.38;71.77
35507;BME280;36461;52.018;21.036;2023-02-12T08:04:02;102214.05;;;0.36;71.59
35507;BME280;36461;52.018;21.036;2023-02-12T08:06:35;102217.34;;;0.37;71.37
35507;BME280;36461;52.018;21.036;2023-02-12T08:09:06;102218.10;;;0.40;71.22
35507;BME280;36461;52.018;21.036;2023-02-12T08:11:35;102227.11;;;0.43;71.40
35507;BME280;36461;52.018;21.036;2023-02-12T08:14:04;102232.79;;;0.49;71.50
35507;BME280;36461;52.018;21.036;2023-02-12T08:16:37;102232.00;;;0.56;71.30
35507;BME280;36461;52.018;21.036;2023-02-12T08:19:06;102228.95;;;0.60;71.52
35507;BME280;36461;52.018;21.036;2023-02-12T08:21:51;102232.20;;;0.61;70.99
35507;BME280;36461;52.018;21.036;2023-02-12T08:24:19;102229.48;;;0.65;71.43
35507;BME280;36461;52.018;21.036;2023-02-12T08:26:49;102228.92;;;0.73;71.40
35507;BME280;36461;52.018;21.036;2023-02-12T08:29:20;102231.73;;;0.80;71.39
35507;BME280;36461;52.018;21.036;2023-02-12T08:31:50;102236.54;;;0.85;70.69
35507;BME280;36461;52.018;21.036;2023-02-12T08:34:30;102235.98;;;0.83;70.91
35507;BME280;36461;52.018;21.036;2023-02-12T08:36:59;102236.92;;;0.81;70.95
35507;BME280;36461;52.018;21.036;2023-02-12T08:39:28;102235.38;;;0.81;70.83
35507;BME280;36461;52.018;21.036;2023-02-12T08:41:58;102237.59;;;0.81;70.62
35507;BME280;36461;52.018;21.036;2023-02-12T08:44:26;102244.51;;;0.84;70.48
35507;BME280;36461;52.018;21.036;2023-02-12T08:46:54;102248.17;;;0.86;70.43
35507;BME280;36461;52.018;21.036;2023-02-12T08:49:25;102249.23;;;0.87;70.28
35507;BME280;36461;52.018;21.036;2023-02-12T08:51:56;102253.13;;;0.87;70.27
35507;BME280;36461;52.018;21.036;2023-02-12T08:54:25;102253.52;;;0.88;70.45
35507;BME280;36461;52.018;21.036;2023-02-12T08:56:58;102251.79;;;0.92;70.52
35507;BME280;36461;52.018;21.036;2023-02-12T08:59:26;102250.03;;;0.95;70.64
35507;BME280;36461;52.018;21.036;2023-02-12T09:01:54;102248.91;;;0.97;70.92
35507;BME280;36461;52.018;21.036;2023-02-12T09:04:25;102251.88;;;0.98;70.53
35507;BME280;36461;52.018;21.036;2023-02-12T09:06:54;102249.39;;;1.00;70.62
35507;BME280;36461;52.018;21.036;2023-02-12T09:09:22;102245.66;;;1.01;70.72
35507;BME280;36461;52.018;21.036;2023-02-12T09:11:51;102246.91;;;1.03;70.54
35507;BME280;36461;52.018;21.036;2023-02-12T09:14:19;102238.70;;;1.07;70.33
35507;BME280;36461;52.018;21.036;2023-02-12T09:16:52;102236.98;;;1.11;70.33
35507;BME280;36461;52.018;21.036;2023-02-12T09:19:20;102243.31;;;1.17;70.37
35507;BME280;36461;52.018;21.036;2023-02-12T09:21:53;102244.98;;;1.25;70.33
35507;BME280;36461;52.018;21.036;2023-02-12T09:24:24;102245.79;;;1.28;70.36
35507;BME280;36461;52.018;21.036;2023-02-12T09:26:55;102253.12;;;1.33;70.50
35507;BME280;36461;52.018;21.036;2023-02-12T09:29:23;102256.11;;;1.40;70.24
35507;BME280;36461;52.018;21.036;2023-02-12T09:31:51;102257.20;;;1.47;70.28
35507;BME280;36461;52.018;21.036;2023-02-12T09:34:20;102253.36;;;1.59;70.33
35507;BME280;36461;52.018;21.036;2023-02-12T09:36:48;102259.91;;;1.71;70.13
35507;BME280;36461;52.018;21.036;2023-02-12T09:39:16;102269.40;;;1.84;69.90
35507;BME280;36461;52.018;21.036;2023-02-12T09:42:09;102275.33;;;1.93;69.73
35507;BME280;36461;52.018;21.036;2023-02-12T09:45:06;102275.14;;;1.97;69.82
35507;BME280;36461;52.018;21.036;2023-02-12T09:47:59;102279.55;;;1.96;69.19
35507;BME280;36461;52.018;21.036;2023-02-12T09:53:04;102287.55;;;2.00;69.45
35507;BME280;36461;52.018;21.036;2023-02-12T09:55:33;102295.94;;;2.01;69.36
35507;BME280;36461;52.018;21.036;2023-02-12T09:58:07;102298.66;;;2.01;69.23
35507;BME280;36461;52.018;21.036;2023-02-12T10:00:39;102290.11;;;2.00;69.36
35507;BME280;36461;52.018;21.036;2023-02-12T10:03:12;102291.55;;;2.03;69.53
35507;BME280;36461;52.018;21.036;2023-02-12T10:05:48;102290.20;;;2.03;69.17
35507;BME280;36461;52.018;21.036;2023-02-12T10:17:40;102294.70;;;2.31;68.48
35507;BME280;36461;52.018;21.036;2023-02-12T10:23:51;102294.76;;;2.38;68.22
35507;BME280;36461;52.018;21.036;2023-02-12T10:26:22;102289.59;;;2.43;68.49
35507;BME280;36461;52.018;21.036;2023-02-12T10:28:53;102279.98;;;2.41;68.52
35507;BME280;36461;52.018;21.036;2023-02-12T10:31:34;102271.33;;;2.43;68.33
35507;BME280;36461;52.018;21.036;2023-02-12T10:34:17;102266.92;;;2.44;68.13
35507;BME280;36461;52.018;21.036;2023-02-12T10:36:49;102272.77;;;2.45;68.18
35507;BME280;36461;52.018;21.036;2023-02-12T10:39:24;102274.44;;;2.49;68.33
35507;BME280;36461;52.018;21.036;2023-02-12T10:42:18;102279.87;;;2.54;67.95
35507;BME280;36461;52.018;21.036;2023-02-12T10:44:45;102284.21;;;2.56;67.54
35507;BME280;36461;52.018;21.036;2023-02-12T10:47:19;102287.53;;;2.58;67.36
35507;BME280;36461;52.018;21.036;2023-02-12T10:49:59;102283.12;;;2.59;67.23
35507;BME280;36461;52.018;21.036;2023-02-12T10:52:47;102273.75;;;2.60;67.32
35507;BME280;36461;52.018;21.036;2023-02-12T10:55:25;102274.41;;;2.60;67.13
35507;BME280;36461;52.018;21.036;2023-02-12T10:57:57;102278.10;;;2.58;67.03
35507;BME280;36461;52.018;21.036;2023-02-12T11:00:31;102281.75;;;2.54;67.12
35507;BME280;36461;52.018;21.036;2023-02-12T11:05:34;102279.76;;;2.56;67.25
35507;BME280;36461;52.018;21.036;2023-02-12T11:08:03;102273.11;;;2.62;67.25
35507;BME280;36461;52.018;21.036;2023-02-12T11:10:38;102275.81;;;2.66;67.17
35507;BME280;36461;52.018;21.036;2023-02-12T11:13:23;102273.21;;;2.71;67.08
35507;BME280;36461;52.018;21.036;2023-02-12T11:15:53;102277.42;;;2.74;67.29
35507;BME280;36461;52.018;21.036;2023-02-12T11:18:24;102269.25;;;2.76;67.06
35507;BME280;36461;52.018;21.036;2023-02-12T11:20:56;102263.90;;;2.79;67.03
35507;BME280;36461;52.018;21.036;2023-02-12T11:23:31;102257.83;;;2.82;67.12
35507;BME280;36461;52.018;21.036;2023-02-12T11:28:33;102262.56;;;2.86;67.56
35507;BME280;36461;52.018;21.036;2023-02-12T11:34:15;102261.35;;;2.92;67.09
35507;BME280;36461;52.018;21.036;2023-02-12T11:36:46;102266.73;;;3.00;67.16
35507;BME280;36461;52.018;21.036;2023-02-12T11:42:05;102265.12;;;3.15;66.30
35507;BME280;36461;52.018;21.036;2023-02-12T11:47:25;102266.21;;;3.24;66.41
35507;BME280;36461;52.018;21.036;2023-02-12T11:50:30;102268.65;;;3.25;66.07
35507;BME280;36461;52.018;21.036;2023-02-12T11:53:05;102262.09;;;3.24;65.68
35507;BME280;36461;52.018;21.036;2023-02-12T11:55:38;102256.43;;;3.23;65.78
35507;BME280;36461;52.018;21.036;2023-02-12T11:58:22;102254.21;;;3.23;66.12
35507;BME280;36461;52.018;21.036;2023-02-12T12:01:04;102248.45;;;3.25;66.00
35507;BME280;36461;52.018;21.036;2023-02-12T12:09:53;102256.38;;;3.27;65.48
35507;BME280;36461;52.018;21.036;2023-02-12T12:12:14;102255.77;;;3.24;65.28
35507;BME280;36461;52.018;21.036;2023-02-12T12:17:52;102252.23;;;3.32;65.94
35507;BME280;36461;52.018;21.036;2023-02-12T12:23:17;102257.56;;;3.45;65.61
35507;BME280;36461;52.018;21.036;2023-02-12T12:25:50;102253.81;;;3.52;65.43
35507;BME280;36461;52.018;21.036;2023-02-12T12:31:49;102247.93;;;3.63;65.26
35507;BME280;36461;52.018;21.036;2023-02-12T12:34:26;102246.55;;;3.69;65.19
35507;BME280;36461;52.018;21.036;2023-02-12T12:46:20;102227.59;;;3.70;64.41
35507;BME280;36461;52.018;21.036;2023-02-12T12:58:00;102218.46;;;3.68;64.88
35507;BME280;36461;52.018;21.036;2023-02-12T13:06:35;102209.56;;;3.69;64.38
35507;BME280;36461;52.018;21.036;2023-02-12T13:18:12;102205.42;;;3.88;64.52
35507;BME280;36461;52.018;21.036;2023-02-12T13:24:26;102208.33;;;4.02;64.69
35507;BME280;36461;52.018;21.036;2023-02-12T13:27:01;102203.02;;;4.02;64.14
35507;BME280;36461;52.018;21.036;2023-02-12T13:34:58;102203.22;;;3.89;63.87
35507;BME280;36461;52.018;21.036;2023-02-12T13:37:46;102206.77;;;3.86;64.02
35507;BME280;36461;52.018;21.036;2023-02-12T13:48:19;102213.51;;;3.62;63.47
35507;BME280;36461;52.018;21.036;2023-02-12T13:50:56;102219.16;;;3.56;63.79
35507;BME280;36461;52.018;21.036;2023-02-12T13:53:50;102219.64;;;3.54;63.81
35507;BME280;36461;52.018;21.036;2023-02-12T13:56:28;102217.09;;;3.55;64.09
35507;BME280;36461;52.018;21.036;2023-02-12T13:59:01;102215.59;;;3.57;64.23
35507;BME280;36461;52.018;21.036;2023-02-12T14:01:43;102217.83;;;3.57;64.42
35507;BME280;36461;52.018;21.036;2023-02-12T14:04:25;102214.34;;;3.55;64.46
35507;BME280;36461;52.018;21.036;2023-02-12T14:07:06;102212.36;;;3.51;64.27
35507;BME280;36461;52.018;21.036;2023-02-12T14:09:42;102214.75;;;3.45;64.46
35507;BME280;36461;52.018;21.036;2023-02-12T14:14:54;102209.88;;;3.41;64.56
35507;BME280;36461;52.018;21.036;2023-02-12T14:20:18;102213.36;;;3.37;64.89
35507;BME280;36461;52.018;21.036;2023-02-12T14:27:52;102215.61;;;3.31;65.48
35507;BME280;36461;52.018;21.036;2023-02-12T14:30:32;102210.40;;;3.29;65.39
35507;BME280;36461;52.018;21.036;2023-02-12T14:35:36;102213.48;;;3.23;65.31
35507;BME280;36461;52.018;21.036;2023-02-12T14:40:46;102224.14;;;3.12;65.41
35507;BME280;36461;52.018;21.036;2023-02-12T14:47:04;102219.05;;;2.96;65.50
35507;BME280;36461;52.018;21.036;2023-02-12T14:49:17;102217.79;;;2.87;65.64
35507;BME280;36461;52.018;21.036;2023-02-12T14:52:02;102211.86;;;2.77;65.52
35507;BME280;36461;52.018;21.036;2023-02-12T14:54:52;102214.73;;;2.70;66.07
35507;BME280;36461;52.018;21.036;2023-02-12T14:57:26;102212.98;;;2.64;66.35
35507;BME280;36461;52.018;21.036;2023-02-12T15:00:00;102220.31;;;2.57;66.18
35507;BME280;36461;52.018;21.036;2023-02-12T15:02:32;102221.19;;;2.52;66.23
35507;BME280;36461;52.018;21.036;2023-02-12T15:05:15;102222.19;;;2.45;66.21
35507;BME280;36461;52.018;21.036;2023-02-12T15:08:07;102217.52;;;2.38;66.58
35507;BME280;36461;52.018;21.036;2023-02-12T15:10:45;102214.75;;;2.31;66.73
35507;BME280;36461;52.018;21.036;2023-02-12T15:13:28;102215.59;;;2.26;66.96
35507;BME280;36461;52.018;21.036;2023-02-12T15:16:07;102219.30;;;2.18;67.13
35507;BME280;36461;52.018;21.036;2023-02-12T15:21:18;102227.39;;;2.05;67.70
35507;BME280;36461;52.018;21.036;2023-02-12T15:24:09;102230.54;;;1.96;67.66
35507;BME280;36461;52.018;21.036;2023-02-12T15:26:49;102228.59;;;1.89;67.91
35507;BME280;36461;52.018;21.036;2023-02-12T15:29:21;102234.64;;;1.81;68.35
35507;BME280;36461;52.018;21.036;2023-02-12T15:31:56;102229.08;;;1.73;68.46
35507;BME280;36461;52.018;21.036;2023-02-12T15:34:31;102237.19;;;1.65;68.73
35507;BME280;36461;52.018;21.036;2023-02-12T15:37:03;102235.73;;;1.59;68.73
35507;BME280;36461;52.018;21.036;2023-02-12T15:42:31;102241.86;;;1.43;69.03
35507;BME280;36461;52.018;21.036;2023-02-12T15:45:25;102241.98;;;1.36;69.73
35507;BME280;36461;52.018;21.036;2023-02-12T15:48:01;102241.83;;;1.32;69.69
35507;BME280;36461;52.018;21.036;2023-02-12T15:50:32;102249.45;;;1.30;69.86
35507;BME280;36461;52.018;21.036;2023-02-12T15:53:02;102252.42;;;1.28;69.97